Garlock, California
Current Conditions -  °F | °C
As of 8:56 PM on Friday 24 Oct 2014 (Local Time) from KNID Reporting Station
Clear Clear  
Wind Chill: 75°   Ceiling: Unl
Heat Index: 75°   Visibility: 10mi
Dew Point: 27°   Wind: 14mph
Humidity: 17%   Direction: 200°SSW
Pressure: 29.98"   Gusts: NA
Location:  35.4114°N, 117.737°W
Report Text: KNID 250356Z AUTO 20012KT 10SM CLR 24/M03 A2998 RMK AO2 SLP141 T02391028 $
Loading
Personal Weather Stations






























Interactive Weather Map
Tropical Storm Tracking
New forecast layout! Learn more

10-Day Weather Forecast

Advertisements
Track Severe Weather on mobile